createdAt,value
2022-10-18T00:00:55.658Z,22.27
2022-10-18T00:03:22.669Z,22.63
2022-10-18T00:05:50.454Z,21.40
2022-10-18T00:08:18.686Z,22.40
2022-10-18T00:10:46.207Z,23.23
2022-10-18T00:13:13.864Z,22.50
2022-10-18T00:15:41.075Z,22.73
2022-10-18T00:18:08.217Z,22.13
2022-10-18T00:20:35.112Z,22.00
2022-10-18T00:23:01.982Z,23.07
2022-10-18T00:25:28.928Z,23.57
2022-10-18T00:27:55.830Z,24.70
2022-10-18T00:30:22.797Z,23.97
2022-10-18T00:32:49.716Z,24.50
2022-10-18T00:35:16.945Z,25.23
2022-10-18T00:37:43.897Z,21.93
2022-10-18T00:40:11.277Z,25.10
2022-10-18T00:42:38.678Z,25.70
2022-10-18T00:45:25.238Z,30.93
2022-10-18T00:48:00.812Z,30.30
2022-10-18T00:50:32.739Z,26.57
2022-10-18T00:53:05.211Z,27.40
2022-10-18T00:55:33.983Z,29.67
2022-10-18T00:58:02.011Z,32.43
2022-10-18T01:00:29.161Z,30.47
2022-10-18T01:02:58.521Z,30.27
2022-10-18T01:05:26.304Z,28.63
2022-10-18T01:08:26.831Z,28.37
2022-10-18T01:11:28.516Z,30.30
2022-10-18T01:14:32.637Z,33.27
2022-10-18T01:17:11.614Z,34.10
2022-10-18T01:20:02.798Z,28.97
2022-10-18T01:22:43.952Z,26.97
2022-10-18T01:25:40.198Z,26.37
2022-10-18T01:28:48.055Z,29.27
2022-10-18T01:31:31.440Z,27.80
2022-10-18T01:34:03.325Z,27.43
2022-10-18T01:36:40.762Z,29.63
2022-10-18T01:39:16.418Z,26.13
2022-10-18T01:41:46.735Z,24.03
2022-10-18T01:44:20.003Z,24.60
2022-10-18T01:46:47.795Z,23.53
2022-10-18T01:49:14.828Z,24.70
2022-10-18T01:51:41.904Z,25.47
2022-10-18T01:54:13.461Z,25.20
2022-10-18T01:57:03.924Z,22.23
2022-10-18T01:59:55.276Z,21.43
2022-10-18T02:03:02.387Z,23.00
2022-10-18T02:05:48.487Z,23.13
2022-10-18T02:08:30.341Z,30.43
2022-10-18T02:11:02.489Z,29.03
2022-10-18T02:13:43.561Z,29.07
2022-10-18T02:16:20.104Z,28.90
2022-10-18T02:19:03.188Z,29.00
2022-10-18T02:21:31.506Z,25.77
2022-10-18T02:24:00.822Z,22.40
2022-10-18T02:26:27.877Z,29.50
2022-10-18T02:28:55.265Z,23.47
2022-10-18T02:31:35.929Z,25.00
2022-10-18T02:34:26.137Z,25.10
2022-10-18T02:36:59.130Z,28.73
2022-10-18T02:39:32.926Z,27.20
2022-10-18T02:41:59.980Z,27.80
2022-10-18T02:44:27.311Z,25.23
2022-10-18T02:46:54.364Z,22.83
2022-10-18T02:49:21.360Z,23.87
2022-10-18T02:51:48.280Z,29.40
2022-10-18T02:54:15.208Z,25.00
2022-10-18T02:56:42.175Z,25.43
2022-10-18T02:59:09.363Z,23.80
2022-10-18T03:01:36.472Z,21.77
2022-10-18T03:04:04.580Z,28.10
2022-10-18T03:06:32.441Z,28.37
2022-10-18T03:08:59.446Z,26.10
2022-10-18T03:11:26.480Z,25.30
2022-10-18T03:13:53.389Z,22.33
2022-10-18T03:16:20.341Z,26.67
2022-10-18T03:18:47.245Z,20.70
2022-10-18T03:21:14.232Z,21.70
2022-10-18T03:23:42.403Z,17.50
2022-10-18T03:26:09.611Z,18.27
2022-10-18T03:28:36.714Z,19.03
2022-10-18T03:31:05.064Z,20.10
2022-10-18T03:33:32.557Z,22.17
2022-10-18T03:35:59.745Z,23.97
2022-10-18T03:38:26.830Z,24.90
2022-10-18T03:40:53.843Z,23.43
2022-10-18T03:43:20.907Z,22.93
2022-10-18T03:45:47.873Z,22.00
2022-10-18T03:48:14.788Z,21.07
2022-10-18T03:50:42.905Z,24.63
2022-10-18T03:53:10.107Z,25.10
2022-10-18T03:55:37.555Z,19.00
2022-10-18T03:58:04.843Z,21.93
2022-10-18T04:00:31.811Z,23.47
2022-10-18T04:02:58.679Z,23.73
2022-10-18T04:05:27.956Z,33.80
2022-10-18T04:07:55.188Z,35.90
2022-10-18T04:10:22.340Z,31.47
2022-10-18T04:12:49.450Z,29.90
2022-10-18T04:15:16.813Z,23.13
2022-10-18T04:17:44.841Z,24.98
2022-10-18T04:20:12.378Z,23.30
2022-10-18T04:22:39.279Z,24.42
2022-10-18T04:25:06.497Z,29.20
2022-10-18T04:27:33.779Z,26.20
2022-10-18T04:30:01.254Z,27.25
2022-10-18T04:32:29.409Z,31.20
2022-10-18T04:34:56.460Z,32.70
2022-10-18T04:37:23.628Z,29.02
2022-10-18T04:39:53.500Z,30.75
2022-10-18T04:42:22.152Z,22.97
2022-10-18T04:44:49.645Z,22.63
2022-10-18T04:47:17.490Z,22.67
2022-10-18T04:49:44.601Z,26.33
2022-10-18T04:52:11.797Z,24.20
2022-10-18T04:54:38.693Z,24.87
2022-10-18T04:57:05.647Z,23.07
2022-10-18T04:59:32.561Z,25.73
2022-10-18T05:01:59.559Z,28.47
2022-10-18T05:04:26.529Z,28.90
2022-10-18T05:06:53.436Z,33.57
2022-10-18T05:09:24.433Z,26.63
2022-10-18T05:11:51.646Z,27.90
2022-10-18T05:14:18.710Z,28.10
2022-10-18T05:16:45.808Z,26.70
2022-10-18T05:19:12.718Z,24.30
2022-10-18T05:21:39.911Z,27.87
2022-10-18T05:24:07.077Z,33.07
2022-10-18T05:26:34.223Z,33.77
2022-10-18T05:29:01.428Z,31.10
2022-10-18T05:31:28.461Z,31.00
2022-10-18T05:33:55.450Z,31.00
2022-10-18T05:36:22.647Z,28.20
2022-10-18T05:38:49.599Z,38.90
2022-10-18T05:41:16.595Z,34.33
2022-10-18T05:43:43.684Z,46.53
2022-10-18T05:46:15.092Z,39.47
2022-10-18T05:48:44.642Z,36.20
2022-10-18T05:51:11.789Z,38.33
2022-10-18T05:53:38.898Z,39.20
2022-10-18T05:56:07.377Z,37.77
2022-10-18T05:58:35.092Z,37.57
2022-10-18T06:01:04.460Z,38.77
2022-10-18T06:03:32.062Z,37.55
2022-10-18T06:06:12.065Z,39.20
2022-10-18T06:08:41.533Z,49.30
2022-10-18T06:11:11.201Z,52.85
2022-10-18T06:13:47.153Z,43.05
2022-10-18T06:16:17.519Z,39.50
2022-10-18T06:18:49.188Z,35.60
2022-10-18T06:21:16.772Z,39.72
2022-10-18T06:23:43.881Z,43.15
2022-10-18T06:26:12.162Z,42.33
2022-10-18T06:28:39.420Z,38.42
2022-10-18T06:31:07.176Z,31.65
2022-10-18T06:33:36.572Z,36.30
2022-10-18T06:36:11.073Z,37.03
2022-10-18T06:38:38.169Z,41.87
2022-10-18T06:41:06.869Z,33.60
2022-10-18T06:43:33.782Z,82.70
2022-10-18T06:46:05.026Z,52.10
2022-10-18T06:48:33.088Z,48.17
2022-10-18T06:51:03.323Z,39.80
2022-10-18T06:53:34.658Z,41.47
2022-10-18T06:56:08.566Z,39.43
2022-10-18T06:58:35.902Z,38.90
2022-10-18T07:01:16.054Z,38.22
2022-10-18T07:03:44.374Z,39.07
2022-10-18T07:06:14.966Z,35.47
2022-10-18T07:08:42.312Z,39.33
2022-10-18T07:11:17.034Z,39.30
2022-10-18T07:13:44.100Z,47.03
2022-10-18T07:16:18.743Z,42.23
2022-10-18T07:18:51.427Z,40.73
2022-10-18T07:21:22.185Z,41.47
2022-10-18T07:23:51.041Z,46.40
2022-10-18T07:26:33.956Z,42.80
2022-10-18T07:29:08.015Z,44.80
2022-10-18T07:31:36.054Z,43.70
2022-10-18T07:34:05.626Z,42.27
2022-10-18T07:36:32.673Z,48.17
2022-10-18T07:38:59.734Z,43.57
2022-10-18T07:41:26.658Z,45.93
2022-10-18T07:43:53.810Z,48.37
2022-10-18T07:46:22.791Z,48.83
2022-10-18T07:48:50.056Z,48.60
2022-10-18T07:51:18.506Z,56.80
2022-10-18T07:53:45.965Z,53.93
2022-10-18T07:56:16.793Z,50.77
2022-10-18T07:58:44.976Z,49.10
2022-10-18T08:01:13.157Z,48.90
2022-10-18T08:03:41.300Z,47.03
2022-10-18T08:06:10.832Z,55.33
2022-10-18T08:08:39.715Z,43.93
2022-10-18T08:11:14.990Z,47.93
2022-10-18T08:13:47.807Z,49.45
2022-10-18T08:16:18.904Z,50.35
2022-10-18T08:18:46.146Z,49.63
2022-10-18T08:21:15.635Z,52.75
2022-10-18T08:23:43.126Z,58.73
2022-10-18T08:26:15.131Z,58.50
2022-10-18T08:28:53.715Z,56.77
2022-10-18T08:31:26.130Z,69.47
2022-10-18T08:33:56.984Z,60.60
2022-10-18T08:36:24.362Z,53.07
2022-10-18T08:38:51.730Z,52.67
2022-10-18T08:41:38.147Z,62.60
2022-10-18T08:44:45.866Z,61.93
2022-10-18T08:47:18.333Z,65.17
2022-10-18T08:49:49.912Z,48.07
2022-10-18T08:52:55.086Z,45.00
2022-10-18T08:55:36.991Z,50.97
2022-10-18T08:58:20.642Z,50.00
2022-10-18T09:01:14.133Z,46.87
2022-10-18T09:04:08.648Z,46.20
2022-10-18T09:07:06.116Z,45.50
2022-10-18T09:09:33.059Z,45.67
2022-10-18T09:12:16.725Z,46.67
2022-10-18T09:15:04.801Z,41.97
2022-10-18T09:18:23.805Z,45.67
2022-10-18T09:21:00.575Z,42.05
2022-10-18T09:23:58.553Z,39.27
2022-10-18T09:26:26.730Z,35.23
2022-10-18T09:29:03.259Z,33.70
2022-10-18T09:31:51.422Z,33.60
2022-10-18T09:34:41.189Z,36.13
2022-10-18T09:37:15.003Z,35.53
2022-10-18T09:39:42.874Z,31.17
2022-10-18T09:42:36.352Z,35.03
2022-10-18T09:45:31.467Z,31.00
2022-10-18T09:48:15.604Z,30.60
2022-10-18T09:50:52.556Z,25.20
2022-10-18T09:53:45.150Z,24.47
2022-10-18T09:56:20.295Z,28.37
2022-10-18T09:58:51.310Z,22.83
2022-10-18T10:01:31.112Z,25.10
2022-10-18T10:03:58.299Z,24.50
2022-10-18T10:06:34.596Z,27.57
2022-10-18T10:09:13.769Z,25.13
2022-10-18T10:11:50.214Z,19.03
2022-10-18T10:14:30.730Z,18.90
2022-10-18T10:17:03.371Z,17.50
2022-10-18T10:19:35.776Z,20.92
2022-10-18T10:22:09.630Z,17.70
2022-10-18T10:24:51.380Z,19.70
2022-10-18T10:27:34.086Z,18.27
2022-10-18T10:30:22.092Z,18.40
2022-10-18T10:32:54.252Z,16.50
2022-10-18T10:35:56.338Z,14.70
2022-10-18T10:38:29.410Z,14.25
2022-10-18T10:40:57.174Z,13.97
2022-10-18T10:43:38.182Z,14.50
2022-10-18T10:46:15.743Z,15.23
2022-10-18T10:49:09.563Z,13.17
2022-10-18T10:51:43.579Z,15.77
2022-10-18T10:54:18.611Z,11.47
2022-10-18T10:57:01.514Z,12.47
2022-10-18T10:59:45.019Z,8.20
2022-10-18T11:02:30.699Z,7.37
2022-10-18T11:05:27.163Z,12.50
2022-10-18T11:08:00.438Z,10.70
2022-10-18T11:10:32.702Z,9.27
2022-10-18T11:13:29.146Z,10.90
2022-10-18T11:16:17.598Z,13.13
2022-10-18T11:18:49.178Z,10.20
2022-10-18T11:21:34.625Z,9.37
2022-10-18T11:24:03.027Z,10.00
2022-10-18T11:26:48.817Z,12.80
2022-10-18T11:29:34.366Z,10.60
2022-10-18T11:32:41.310Z,12.50
2022-10-18T11:35:32.592Z,8.93
2022-10-18T11:38:17.789Z,9.10
2022-10-18T11:41:22.981Z,11.10
2022-10-18T11:44:02.767Z,8.00
2022-10-18T11:46:39.241Z,8.00
2022-10-18T11:49:18.094Z,7.17
2022-10-18T11:52:20.713Z,8.60
2022-10-18T11:55:27.685Z,6.60
2022-10-18T11:58:57.945Z,8.73
2022-10-18T12:01:43.520Z,7.77
2022-10-18T12:04:17.788Z,8.37
2022-10-18T12:06:49.318Z,10.63
2022-10-18T12:09:33.131Z,11.90
2022-10-18T12:12:52.528Z,4.27
2022-10-18T12:15:23.982Z,6.60
2022-10-18T12:17:55.224Z,8.88
2022-10-18T12:20:49.132Z,9.30
2022-10-18T12:23:39.273Z,6.50
2022-10-18T12:26:09.789Z,7.07
2022-10-18T12:28:55.955Z,8.60
2022-10-18T12:31:33.838Z,6.50
2022-10-18T12:34:25.130Z,7.72
2022-10-18T12:37:54.316Z,8.20
2022-10-18T12:40:31.120Z,3.67
2022-10-18T12:42:58.220Z,4.70
2022-10-18T12:45:35.023Z,3.60
2022-10-18T12:48:31.272Z,3.27
2022-10-18T12:51:19.031Z,3.33
2022-10-18T12:54:01.238Z,2.50
2022-10-18T12:56:28.081Z,5.90
2022-10-18T12:59:16.495Z,6.07
2022-10-18T13:01:52.796Z,7.20
2022-10-18T13:04:29.020Z,3.60
2022-10-18T13:07:04.713Z,4.27
2022-10-18T13:09:44.523Z,4.17
2022-10-18T13:12:11.569Z,3.93
2022-10-18T13:15:12.472Z,4.80
2022-10-18T13:18:06.927Z,5.00
2022-10-18T13:20:36.713Z,7.70
2022-10-18T13:23:33.970Z,6.60
2022-10-18T13:26:24.929Z,4.93
2022-10-18T13:29:09.518Z,3.73
2022-10-18T13:32:19.444Z,3.03
2022-10-18T13:34:46.469Z,3.93
2022-10-18T13:37:15.609Z,3.03
2022-10-18T13:39:43.463Z,2.43
2022-10-18T13:42:16.359Z,3.00
2022-10-18T13:44:46.902Z,3.10
2022-10-18T13:47:37.937Z,2.87
2022-10-18T13:53:32.588Z,5.43
2022-10-18T13:56:13.036Z,5.80
2022-10-18T13:59:42.124Z,4.60
2022-10-18T14:02:59.389Z,6.00
2022-10-18T14:05:49.973Z,7.20
2022-10-18T14:08:58.273Z,4.00
2022-10-18T14:11:45.980Z,3.73
2022-10-18T14:14:23.030Z,5.10
2022-10-18T14:17:22.869Z,11.07
2022-10-18T14:19:58.545Z,4.20
2022-10-18T14:22:38.269Z,4.10
2022-10-18T14:25:36.654Z,2.97
2022-10-18T14:28:12.488Z,6.40
2022-10-18T14:31:01.198Z,5.03
2022-10-18T14:33:58.884Z,5.13
2022-10-18T14:36:41.737Z,2.80
2022-10-18T14:39:22.761Z,4.23
2022-10-18T14:41:53.208Z,6.87
2022-10-18T14:44:28.015Z,9.13
2022-10-18T14:47:21.341Z,4.23
2022-10-18T14:49:49.066Z,3.70
2022-10-18T14:52:24.062Z,3.77
2022-10-18T14:54:56.461Z,3.90
2022-10-18T14:57:29.593Z,6.10
2022-10-18T15:00:03.148Z,4.17
2022-10-18T15:02:34.270Z,7.13
2022-10-18T15:05:17.366Z,5.30
2022-10-18T15:07:45.140Z,5.57
2022-10-18T15:10:29.828Z,3.60
2022-10-18T15:13:11.075Z,5.83
2022-10-18T15:15:39.531Z,5.93
2022-10-18T15:18:08.022Z,7.57
2022-10-18T15:20:43.469Z,4.50
2022-10-18T15:23:31.201Z,3.77
2022-10-18T15:26:10.053Z,5.83
2022-10-18T15:28:49.959Z,5.20
2022-10-18T15:31:29.464Z,6.03
2022-10-18T15:34:27.091Z,5.50
2022-10-18T15:36:57.824Z,8.57
2022-10-18T15:39:31.178Z,11.03
2022-10-18T15:42:01.547Z,8.97
2022-10-18T15:44:47.043Z,6.80
2022-10-18T15:47:16.035Z,7.70
2022-10-18T15:49:46.139Z,10.73
2022-10-18T15:52:30.768Z,7.97
2022-10-18T15:55:02.455Z,8.23
2022-10-18T15:57:31.576Z,4.57
2022-10-18T16:00:18.582Z,4.73
2022-10-18T16:02:46.441Z,7.23
2022-10-18T16:05:17.017Z,7.67
2022-10-18T16:07:44.102Z,7.77
2022-10-18T16:10:17.794Z,6.37
2022-10-18T16:12:45.071Z,8.20
2022-10-18T16:15:12.078Z,11.20
2022-10-18T16:17:39.290Z,11.10
2022-10-18T16:20:07.359Z,16.03
2022-10-18T16:22:36.887Z,8.93
2022-10-18T16:25:04.417Z,8.70
2022-10-18T16:27:31.321Z,8.63
2022-10-18T16:29:58.248Z,5.87
2022-10-18T16:32:25.343Z,8.43
2022-10-18T16:34:52.242Z,6.33
2022-10-18T16:37:19.206Z,4.33
2022-10-18T16:39:46.340Z,6.72
2022-10-18T16:42:13.811Z,5.70
2022-10-18T16:44:40.684Z,3.07
2022-10-18T16:47:07.864Z,4.77
2022-10-18T16:49:34.904Z,9.23
2022-10-18T16:52:01.820Z,7.43
2022-10-18T16:54:28.824Z,4.88
2022-10-18T16:56:55.769Z,7.00
2022-10-18T16:59:31.517Z,4.17
2022-10-18T17:01:58.756Z,4.80
2022-10-18T17:04:25.728Z,4.47
2022-10-18T17:06:55.811Z,5.40
2022-10-18T17:09:22.760Z,5.07
2022-10-18T17:11:50.045Z,3.50
2022-10-18T17:14:17.089Z,7.43
2022-10-18T17:16:46.634Z,7.82
2022-10-18T17:19:17.126Z,6.17
2022-10-18T17:21:44.066Z,5.97
2022-10-18T17:24:11.156Z,4.60
2022-10-18T17:26:38.085Z,3.80
2022-10-18T17:29:08.201Z,4.00
2022-10-18T17:31:35.664Z,4.20
2022-10-18T17:34:03.261Z,7.83
2022-10-18T17:36:32.476Z,4.73
2022-10-18T17:38:59.450Z,4.93
2022-10-18T17:41:27.094Z,7.37
2022-10-18T17:43:54.098Z,7.17
2022-10-18T17:46:21.316Z,4.30
2022-10-18T17:48:48.394Z,7.07
2022-10-18T17:51:17.195Z,4.83
2022-10-18T17:53:44.519Z,7.07
2022-10-18T17:56:13.359Z,4.50
2022-10-18T17:58:43.411Z,7.60
2022-10-18T18:01:17.297Z,6.70
2022-10-18T18:03:44.668Z,5.37
2022-10-18T18:06:33.449Z,10.07
2022-10-18T18:09:07.369Z,6.03
2022-10-18T18:11:36.679Z,5.43
2022-10-18T18:14:08.815Z,5.60
2022-10-18T18:16:41.586Z,5.10
2022-10-18T18:19:10.023Z,4.67
2022-10-18T18:21:38.358Z,3.73
2022-10-18T18:24:05.825Z,5.33
2022-10-18T18:26:34.886Z,4.27
2022-10-18T18:31:37.740Z,8.47
2022-10-18T18:34:07.249Z,3.47
2022-10-18T18:36:34.210Z,6.70
2022-10-18T18:39:01.197Z,6.33
2022-10-18T18:41:28.840Z,5.83
2022-10-18T18:44:02.690Z,3.77
2022-10-18T18:46:38.265Z,6.90
2022-10-18T18:49:06.987Z,6.60
2022-10-18T18:51:37.323Z,4.63
2022-10-18T18:54:04.743Z,4.30
2022-10-18T18:56:32.014Z,5.00
2022-10-18T18:58:59.467Z,9.30
2022-10-18T19:01:33.837Z,4.10
2022-10-18T19:04:01.144Z,9.20
2022-10-18T19:06:36.761Z,4.23
2022-10-18T19:09:07.649Z,8.20
2022-10-18T19:11:38.762Z,4.03
2022-10-18T19:14:08.112Z,4.93
2022-10-18T19:16:49.421Z,8.13
2022-10-18T19:19:20.677Z,32.87
2022-10-18T19:22:03.574Z,23.40
2022-10-18T19:24:31.038Z,10.33
2022-10-18T19:27:05.306Z,6.13
2022-10-18T19:29:35.699Z,7.43
2022-10-18T19:32:07.280Z,6.90
2022-10-18T19:34:34.609Z,9.07
2022-10-18T19:37:02.238Z,5.57
2022-10-18T19:39:34.475Z,7.77
2022-10-18T19:42:05.552Z,6.57
2022-10-18T19:44:36.048Z,5.67
2022-10-18T19:47:05.395Z,7.77
2022-10-18T19:49:32.736Z,5.07
2022-10-18T19:51:59.689Z,3.43
2022-10-18T19:54:26.960Z,6.43
2022-10-18T19:56:53.922Z,8.10
2022-10-18T19:59:22.818Z,4.60
2022-10-18T20:01:49.984Z,10.33
2022-10-18T20:04:17.470Z,5.87
2022-10-18T20:06:45.048Z,10.77
2022-10-18T20:09:17.704Z,5.27
2022-10-18T20:11:47.722Z,7.63
2022-10-18T20:14:14.755Z,4.47
2022-10-18T20:16:41.685Z,8.37
2022-10-18T20:19:09.477Z,8.37
2022-10-18T20:21:36.550Z,9.70
2022-10-18T20:24:05.456Z,6.20
2022-10-18T20:26:33.382Z,6.30
2022-10-18T20:29:00.374Z,6.27
2022-10-18T20:31:33.883Z,6.73
2022-10-18T20:34:03.966Z,6.80
2022-10-18T20:36:33.380Z,5.87
2022-10-18T20:39:01.083Z,9.63
2022-10-18T20:41:37.972Z,9.77
2022-10-18T20:44:08.416Z,4.53
2022-10-18T20:46:37.794Z,9.87
2022-10-18T20:49:07.298Z,5.30
2022-10-18T20:51:35.154Z,10.73
2022-10-18T20:56:38.810Z,6.97
2022-10-18T20:59:09.404Z,5.13
2022-10-18T21:01:38.079Z,10.37
2022-10-18T21:04:07.841Z,10.13
2022-10-18T21:06:40.243Z,7.20
2022-10-18T21:09:19.283Z,7.60
2022-10-18T21:11:50.916Z,7.03
2022-10-18T21:14:21.568Z,11.93
2022-10-18T21:16:50.021Z,7.40
2022-10-18T21:19:21.057Z,8.60
2022-10-18T21:21:51.033Z,5.27
2022-10-18T21:24:20.050Z,7.70
2022-10-18T21:26:47.949Z,7.90
2022-10-18T21:29:19.430Z,7.37
2022-10-18T21:31:48.893Z,7.97
2022-10-18T21:34:17.457Z,8.77
2022-10-18T21:36:46.988Z,10.67
2022-10-18T21:39:21.361Z,10.97
2022-10-18T21:41:49.420Z,6.30
2022-10-18T21:44:16.929Z,8.47
2022-10-18T21:46:44.258Z,8.30
2022-10-18T21:49:11.625Z,7.20
2022-10-18T21:51:39.641Z,7.50
2022-10-18T21:54:12.762Z,10.80
2022-10-18T21:56:39.894Z,7.43
2022-10-18T21:59:06.898Z,5.10
2022-10-18T22:01:38.858Z,10.93
2022-10-18T22:04:15.982Z,8.10
2022-10-18T22:06:43.069Z,10.57
2022-10-18T22:09:10.214Z,7.23
2022-10-18T22:11:44.642Z,9.13
2022-10-18T22:14:11.747Z,7.80
2022-10-18T22:16:38.691Z,12.57
2022-10-18T22:19:06.554Z,8.77
2022-10-18T22:21:34.703Z,8.73
2022-10-18T22:24:06.448Z,6.87
2022-10-18T22:26:40.748Z,9.80
2022-10-18T22:29:19.814Z,6.30
2022-10-18T22:31:51.340Z,6.33
2022-10-18T22:34:27.375Z,9.60
2022-10-18T22:36:55.242Z,5.03
2022-10-18T22:39:22.288Z,9.00
2022-10-18T22:41:55.538Z,5.90
2022-10-18T22:44:22.753Z,10.80
2022-10-18T22:46:49.807Z,6.53
2022-10-18T22:49:16.792Z,7.50
2022-10-18T22:51:43.792Z,8.17
2022-10-18T22:54:11.119Z,9.43
2022-10-18T22:56:38.117Z,7.33
2022-10-18T22:59:05.189Z,6.33
2022-10-18T23:01:32.115Z,9.53
2022-10-18T23:04:00.614Z,5.80
2022-10-18T23:06:36.057Z,11.97
2022-10-18T23:09:07.473Z,6.30
2022-10-18T23:11:35.686Z,10.57
2022-10-18T23:14:04.532Z,5.60
2022-10-18T23:16:31.993Z,7.93
2022-10-18T23:18:59.606Z,9.07
2022-10-18T23:21:28.713Z,6.90
2022-10-18T23:23:56.999Z,8.00
2022-10-18T23:26:26.628Z,10.00
2022-10-18T23:28:54.707Z,11.00
2022-10-18T23:31:28.559Z,9.90
2022-10-18T23:33:58.832Z,10.47
2022-10-18T23:36:26.319Z,7.90
2022-10-18T23:38:54.101Z,11.23
2022-10-18T23:41:21.131Z,7.17
2022-10-18T23:43:48.133Z,6.83
2022-10-18T23:46:17.538Z,8.43
2022-10-18T23:48:45.276Z,9.67
2022-10-18T23:51:12.433Z,7.43
2022-10-18T23:53:40.186Z,7.57
2022-10-18T23:56:17.021Z,9.10
2022-10-18T23:58:45.254Z,7.60
